Meteo Giornale » Osservazioni meteo Italia » Falconara

ore: 14:50 - Osservazioni Meteo Falconara
Lat. 43° 37' N Lon. 13° 22' E Alt. 12 metri s.l.m.

sereno Europe/Rome

31 °C

Sereno

Temp. 24 Ore

21 °C

32 °C

Est/Sud-Est

14.8 Km/h

Dew point 20 °C

Umidità 52 %

Visibilità  10 Km

Il sole sorge alle ore 05:25

Il sole tramonta alle ore 20:53

Data e Ora Cielo e Fenomeni T °C DP °C Um. % Pres. hPa Vis. km Vento km/h
Oggi h: 14:50 sereno Sereno 31 20 52 1008 10 E/SE 14.8
Oggi h: 13:50 sereno Sereno 31 18 45 1008 10 E/SE 13
Oggi h: 12:50 nuvoloso Nuvoloso 30 22 62 1009 10 E/NE 16.7
Oggi h: 11:50 nuvoloso Nuvoloso 32 18 43 1009 10 E 13
Oggi h: 10:50 nuvoloso Nuvoloso 28 22 69 1009 10 N/NE 18.5
Oggi h: 09:50 nuvoloso Nuvoloso 29 21 62 1009 10 N 5.5
Oggi h: 08:50 nuvoloso Nuvoloso 27 21 69 1010 10 N 1.8
Oggi h: 07:50 nuvoloso Nuvoloso 23 21 88 1010 10 O/SO 13
Oggi h: 06:50 nuvoloso Nuvoloso 23 20 83 1009 10 N 3.7
Oggi h: 05:50 sereno Sereno 21 19 88 1009 10 N 3.7
Oggi h: 04:50 sereno Sereno 22 19 83 1009 10 N 1.8
Oggi h: 01:50 sereno Sereno 22 17 73 1010 10 N 5.5
Oggi h: 00:50 sereno Sereno 21 17 77 1011 10 N 5.5
Ieri h: 23:50 sereno Sereno 22 17 73 1011 10 N 5.5
Ieri h: 22:50 sereno Sereno 24 18 69 1012 10 N 3.7
Ieri h: 21:50 sereno Sereno 25 18 65 1011 10 N 5.5
Ieri h: 20:50 sereno Sereno 26 17 57 1011 10 N 5.5
Ieri h: 19:50 sereno Sereno 26 18 61 1011 10 N 5.5
Ieri h: 18:50 sereno Sereno 28 16 48 1012 10 E 7.4
Ieri h: 17:50 sereno Sereno 27 19 61 1012 10 NE 9.3
Ieri h: 16:50 sereno Sereno 26 20 69 1012 10 NE 14.8
Ieri h: 15:50 sereno Sereno 28 21 65 1013 10 N/NE 13